Time;durP1;ratioP1;P1;durP2;ratioP2;P2;SDS_P1;SDS_P2;PMS_P1;PMS_P2;Temp;Humidity;BMP_temperature;BMP_pressure;BME280_temperature;BME280_humidity;BME280_pressure;Samples;Min_cycle;Max_cycle;Signal;HPM_P1;HPM_P2
2021/05/15 00:00:28;;;;;;;20.17;15.27;;;7.40;96.30;;;;;;5096870;28;20081;-68
2021/05/15 00:02:57;;;;;;;21.65;17.30;;;7.30;96.20;;;;;;5098968;28;20044;-69
2021/05/15 00:05:23;;;;;;;22.55;16.27;;;7.30;96.40;;;;;;5098322;28;20042;-68
2021/05/15 00:07:49;;;;;;;18.58;16.58;;;7.30;96.70;;;;;;5107667;28;20040;-68
2021/05/15 00:10:15;;;;;;;18.65;15.93;;;7.30;96.60;;;;;;5102227;28;20039;-69
2021/05/15 00:12:43;;;;;;;24.90;17.63;;;7.30;96.60;;;;;;5098045;28;20499;-69
2021/05/15 00:15:11;;;;;;;23.40;17.67;;;7.30;96.60;;;;;;5099835;28;20050;-68
2021/05/15 00:17:40;;;;;;;19.98;17.10;;;7.40;96.60;;;;;;5102393;28;20028;-68
2021/05/15 00:20:15;;;;;;;17.80;15.98;;;7.30;96.70;;;;;;5105268;28;20032;-68
2021/05/15 00:22:43;;;;;;;20.05;15.88;;;7.40;96.80;;;;;;5084245;28;20098;-69
2021/05/15 00:25:11;;;;;;;19.20;16.73;;;7.40;96.90;;;;;;5102861;28;20047;-68
2021/05/15 00:27:36;;;;;;;21.65;16.63;;;7.40;97.00;;;;;;5099095;28;20032;-68
2021/05/15 00:30:08;;;;;;;22.77;18.67;;;7.40;96.70;;;;;;5105250;28;20035;-68
2021/05/15 00:32:34;;;;;;;19.00;16.88;;;7.40;97.00;;;;;;5097248;28;20046;-69
2021/05/15 00:35:00;;;;;;;21.20;17.42;;;7.40;96.90;;;;;;5098775;28;20063;-68
2021/05/15 00:37:26;;;;;;;24.90;18.70;;;7.40;96.70;;;;;;5096511;28;20063;-68
2021/05/15 00:39:52;;;;;;;22.08;18.02;;;7.40;97.00;;;;;;5104708;28;20043;-68
2021/05/15 00:42:17;;;;;;;20.58;18.00;;;7.40;97.10;;;;;;5096176;28;20438;-68
2021/05/15 00:44:44;;;;;;;22.10;17.90;;;7.40;97.10;;;;;;5103445;28;20114;-68
2021/05/15 00:47:22;;;;;;;23.10;17.30;;;7.30;97.40;;;;;;5093637;28;20441;-69
2021/05/15 00:49:51;;;;;;;19.23;15.93;;;7.40;97.30;;;;;;5103412;28;22875;-69
2021/05/15 00:52:18;;;;;;;21.38;16.55;;;7.30;97.30;;;;;;5097987;28;20134;-69
2021/05/15 00:54:44;;;;;;;20.63;16.77;;;7.20;97.10;;;;;;5105190;28;20073;-69
2021/05/15 00:57:11;;;;;;;17.65;15.75;;;7.20;96.90;;;;;;5095948;28;20477;-69
2021/05/15 00:59:39;;;;;;;18.02;15.80;;;7.20;96.90;;;;;;5102885;28;20036;-69
2021/05/15 01:02:07;;;;;;;20.85;16.83;;;7.10;96.90;;;;;;5096473;28;20059;-68
2021/05/15 01:04:34;;;;;;;19.45;16.33;;;7.10;96.90;;;;;;5101666;28;20046;-68
2021/05/15 01:07:01;;;;;;;19.50;17.42;;;7.00;97.20;;;;;;5102717;28;20028;-68
2021/05/15 01:09:27;;;;;;;19.55;16.85;;;7.00;97.10;;;;;;5098810;28;20043;-68
2021/05/15 01:11:52;;;;;;;21.48;16.27;;;6.90;97.00;;;;;;5101630;28;20035;-68
2021/05/15 01:14:18;;;;;;;19.58;16.55;;;6.90;97.00;;;;;;5100032;28;20402;-68
2021/05/15 01:16:44;;;;;;;20.95;17.42;;;6.90;97.10;;;;;;5101641;28;20052;-69
2021/05/15 01:19:14;;;;;;;19.42;15.68;;;6.80;97.10;;;;;;5098714;28;20070;-69
2021/05/15 01:21:40;;;;;;;21.52;16.85;;;6.80;97.20;;;;;;5086849;28;20044;-69
2021/05/15 01:24:07;;;;;;;22.25;17.58;;;6.80;97.30;;;;;;5099442;28;20032;-69
2021/05/15 01:26:34;;;;;;;23.73;17.92;;;6.80;97.30;;;;;;5100641;28;20064;-69
2021/05/15 01:29:03;;;;;;;26.40;18.25;;;6.70;97.20;;;;;;5093769;28;20036;-69
2021/05/15 01:31:30;;;;;;;22.83;18.27;;;6.70;97.20;;;;;;5102932;28;20085;-69
2021/05/15 01:33:57;;;;;;;22.63;17.17;;;6.70;97.40;;;;;;5095506;28;20038;-69
2021/05/15 01:36:23;;;;;;;25.15;18.75;;;6.70;97.40;;;;;;5104897;28;20036;-69
2021/05/15 01:38:50;;;;;;;26.73;18.38;;;6.60;97.60;;;;;;5098318;28;20548;-69
2021/05/15 01:41:17;;;;;;;19.27;16.40;;;6.60;97.40;;;;;;5099518;28;20163;-69
2021/05/15 01:43:44;;;;;;;19.10;16.83;;;6.50;97.40;;;;;;5097283;28;20047;-69
2021/05/15 01:46:12;;;;;;;21.83;17.33;;;6.50;97.60;;;;;;5106969;28;20035;-69
2021/05/15 01:48:38;;;;;;;21.08;18.23;;;6.50;97.60;;;;;;5109018;28;20036;-69
2021/05/15 01:51:12;;;;;;;22.25;16.83;;;6.50;97.70;;;;;;5087468;28;20058;-69
2021/05/15 01:53:43;;;;;;;25.08;18.35;;;6.50;97.80;;;;;;5091300;28;20036;-69
2021/05/15 01:56:12;;;;;;;23.55;18.02;;;6.50;97.80;;;;;;5096118;28;20046;-69
2021/05/15 01:58:39;;;;;;;23.27;18.27;;;6.60;97.80;;;;;;5104405;28;20036;-69
2021/05/15 02:01:05;;;;;;;27.60;19.05;;;6.60;97.80;;;;;;5103070;28;20605;-69
2021/05/15 02:03:31;;;;;;;32.42;20.88;;;6.60;97.80;;;;;;5106022;28;20406;-69
2021/05/15 02:05:57;;;;;;;30.38;20.42;;;6.70;98.40;;;;;;5102266;28;20475;-69
2021/05/15 02:08:24;;;;;;;25.55;18.65;;;6.70;98.70;;;;;;5102475;28;20038;-69
2021/05/15 02:10:51;;;;;;;29.80;19.27;;;6.80;98.80;;;;;;5096481;28;20053;-69
2021/05/15 02:13:18;;;;;;;26.65;20.17;;;6.80;98.90;;;;;;5101534;28;20496;-69
2021/05/15 02:15:48;;;;;;;27.83;19.65;;;6.90;98.90;;;;;;5099807;28;20109;-69
2021/05/15 02:18:15;;;;;;;30.75;21.13;;;6.90;98.70;;;;;;5104669;28;20042;-69
2021/05/15 02:20:42;;;;;;;26.85;19.58;;;7.00;98.70;;;;;;5101650;28;20053;-69
2021/05/15 02:23:09;;;;;;;21.27;17.90;;;7.00;98.70;;;;;;5108997;28;20117;-69
2021/05/15 02:25:36;;;;;;;29.55;19.58;;;7.00;98.70;;;;;;5097704;28;20516;-67
2021/05/15 02:28:04;;;;;;;24.40;18.15;;;7.00;98.70;;;;;;5103588;28;20116;-67
2021/05/15 02:30:31;;;;;;;23.88;19.02;;;7.00;98.60;;;;;;5102364;28;20069;-67
2021/05/15 02:32:57;;;;;;;25.13;19.02;;;7.00;98.50;;;;;;5085789;28;20448;-67
2021/05/15 02:35:23;;;;;;;23.83;18.40;;;6.90;98.90;;;;;;5109417;28;20070;-67
2021/05/15 02:37:51;;;;;;;21.77;17.88;;;7.00;98.70;;;;;;5101509;28;20081;-67
2021/05/15 02:40:17;;;;;;;27.88;18.45;;;7.00;98.70;;;;;;5104979;28;20392;-67
2021/05/15 02:42:50;;;;;;;25.77;18.52;;;7.00;98.80;;;;;;5099706;28;20049;-67
2021/05/15 02:45:18;;;;;;;24.33;18.48;;;7.00;98.80;;;;;;5105482;28;20067;-67
2021/05/15 02:47:44;;;;;;;28.70;19.42;;;7.10;98.80;;;;;;5102414;28;20472;-67
2021/05/15 02:50:12;;;;;;;22.98;18.60;;;7.10;98.80;;;;;;5104003;28;20062;-67
2021/05/15 02:52:38;;;;;;;24.75;18.33;;;7.20;98.80;;;;;;5104461;28;20043;-67
2021/05/15 02:55:05;;;;;;;22.38;18.02;;;7.20;98.90;;;;;;5105528;28;20086;-67
2021/05/15 02:57:34;;;;;;;26.15;18.00;;;7.20;98.80;;;;;;5098256;28;20037;-67
2021/05/15 03:00:00;;;;;;;21.95;17.52;;;7.20;98.80;;;;;;5107220;28;20089;-67
2021/05/15 03:02:26;;;;;;;23.08;16.02;;;7.20;98.70;;;;;;5101943;28;20059;-67
2021/05/15 03:04:52;;;;;;;19.75;16.05;;;7.20;98.80;;;;;;5107333;28;20372;-67
2021/05/15 03:07:18;;;;;;;21.90;16.70;;;7.20;98.70;;;;;;5100780;28;20039;-67
2021/05/15 03:09:45;;;;;;;21.55;16.70;;;7.20;98.80;;;;;;5100871;28;20063;-67
2021/05/15 03:12:12;;;;;;;22.35;17.55;;;7.10;98.70;;;;;;5094765;28;20089;-67
2021/05/15 03:14:38;;;;;;;22.80;16.98;;;7.10;98.70;;;;;;5105987;28;20047;-67
2021/05/15 03:17:04;;;;;;;20.70;17.23;;;7.10;98.60;;;;;;5106807;28;20032;-67
2021/05/15 03:19:30;;;;;;;21.95;17.45;;;7.10;98.70;;;;;;5096890;28;20035;-67
2021/05/15 03:21:56;;;;;;;21.70;15.90;;;7.10;98.80;;;;;;5104878;28;20055;-67
2021/05/15 03:24:22;;;;;;;22.40;16.58;;;7.10;98.70;;;;;;5098152;28;20073;-67
2021/05/15 03:26:48;;;;;;;23.27;16.95;;;7.10;98.70;;;;;;5103995;28;20068;-67
2021/05/15 03:29:14;;;;;;;21.80;17.38;;;7.10;98.70;;;;;;5099519;28;20298;-67
2021/05/15 03:31:40;;;;;;;26.85;16.50;;;7.20;98.90;;;;;;5099762;28;20463;-67
2021/05/15 03:34:07;;;;;;;26.45;16.70;;;7.20;98.90;;;;;;5096455;28;20122;-67
2021/05/15 03:36:36;;;;;;;23.42;17.15;;;7.30;99.00;;;;;;5103975;28;20089;-68
2021/05/15 03:39:06;;;;;;;22.00;16.48;;;7.30;99.00;;;;;;5097221;28;20036;-68
2021/05/15 03:41:31;;;;;;;19.35;16.08;;;7.40;98.90;;;;;;5105071;28;20036;-68
2021/05/15 03:43:58;;;;;;;22.00;16.58;;;7.50;99.00;;;;;;5085018;28;20052;-68
2021/05/15 03:46:23;;;;;;;18.73;15.60;;;7.50;98.80;;;;;;5103897;28;20392;-68
2021/05/15 03:48:49;;;;;;;18.75;15.70;;;7.60;98.70;;;;;;5099572;28;20028;-68
2021/05/15 03:51:15;;;;;;;21.25;15.93;;;7.60;98.50;;;;;;5102770;28;20047;-68
2021/05/15 03:53:41;;;;;;;24.75;16.88;;;7.60;98.50;;;;;;5099285;28;20056;-68
2021/05/15 03:56:07;;;;;;;19.77;16.58;;;7.70;98.50;;;;;;5101909;28;20082;-68
2021/05/15 03:58:33;;;;;;;25.25;16.75;;;7.70;98.50;;;;;;5099252;28;20038;-68
2021/05/15 04:00:59;;;;;;;20.90;16.70;;;7.70;98.50;;;;;;5101524;28;20047;-68
2021/05/15 04:03:25;;;;;;;23.60;16.35;;;7.70;98.40;;;;;;5104516;28;20490;-68
2021/05/15 04:05:50;;;;;;;22.25;17.45;;;7.70;98.40;;;;;;5095988;28;20047;-68
2021/05/15 04:08:17;;;;;;;23.27;17.35;;;7.80;98.50;;;;;;5099993;28;20097;-68
2021/05/15 04:10:42;;;;;;;21.35;16.92;;;7.80;98.50;;;;;;5096040;28;20036;-68
2021/05/15 04:13:26;;;;;;;19.15;17.00;;;7.80;98.40;;;;;;5104138;28;20070;-68
2021/05/15 04:15:58;;;;;;;20.52;17.20;;;7.80;98.30;;;;;;5100348;28;20076;-68
2021/05/15 04:18:28;;;;;;;23.45;18.08;;;7.80;98.60;;;;;;5103082;28;20039;-69
2021/05/15 04:20:55;;;;;;;25.33;17.42;;;7.80;98.40;;;;;;5099557;28;20034;-68
2021/05/15 04:23:21;;;;;;;22.60;17.30;;;7.90;98.40;;;;;;5102851;28;20044;-68
2021/05/15 04:25:48;;;;;;;23.38;17.45;;;7.90;98.40;;;;;;5097004;28;20039;-68
2021/05/15 04:28:15;;;;;;;24.20;18.13;;;7.90;98.40;;;;;;5103447;28;20035;-68
2021/05/15 04:30:42;;;;;;;25.88;17.85;;;7.90;98.40;;;;;;5097349;28;20066;-69
2021/05/15 04:33:08;;;;;;;22.08;18.65;;;7.90;98.70;;;;;;5102195;28;20379;-68
2021/05/15 04:35:33;;;;;;;21.70;17.67;;;7.90;98.70;;;;;;5098539;28;20028;-68
2021/05/15 04:38:04;;;;;;;26.08;17.77;;;8.00;98.60;;;;;;5106961;28;20063;-68
2021/05/15 04:40:30;;;;;;;25.83;18.17;;;8.00;98.60;;;;;;5094758;28;20459;-68
2021/05/15 04:43:00;;;;;;;24.38;17.63;;;8.00;98.50;;;;;;5103025;28;20054;-68
2021/05/15 04:45:31;;;;;;;24.15;17.90;;;8.10;98.60;;;;;;5085370;28;20208;-68
2021/05/15 04:47:58;;;;;;;23.02;17.75;;;8.10;98.50;;;;;;5099994;28;20035;-68
2021/05/15 04:50:24;;;;;;;23.02;16.35;;;8.20;98.40;;;;;;5101750;28;20087;-68
2021/05/15 04:52:51;;;;;;;22.33;17.15;;;8.20;98.40;;;;;;5099542;28;20662;-68
2021/05/15 04:55:17;;;;;;;25.10;17.02;;;8.20;98.40;;;;;;5102991;28;20092;-68
2021/05/15 04:57:43;;;;;;;23.30;17.85;;;8.20;98.40;;;;;;5078310;28;20134;-68
2021/05/15 05:00:10;;;;;;;25.85;18.02;;;8.30;98.30;;;;;;5088394;28;20114;-68
2021/05/15 05:02:35;;;;;;;23.73;18.42;;;8.20;98.30;;;;;;5096067;28;20067;-68
2021/05/15 05:05:01;;;;;;;23.77;18.30;;;8.30;98.30;;;;;;5104264;28;20055;-68
2021/05/15 05:07:27;;;;;;;22.80;17.75;;;8.30;98.20;;;;;;5099397;28;20398;-68
2021/05/15 05:09:53;;;;;;;26.08;17.42;;;8.40;98.10;;;;;;5104413;28;20097;-68
2021/05/15 05:12:19;;;;;;;27.40;18.33;;;8.40;98.10;;;;;;5096544;28;20127;-68
2021/05/15 05:14:44;;;;;;;22.30;18.38;;;8.40;98.00;;;;;;5100938;28;20054;-68
2021/05/15 05:17:10;;;;;;;24.23;18.60;;;8.50;98.00;;;;;;5099765;28;20066;-69
2021/05/15 05:19:36;;;;;;;29.70;19.20;;;8.40;98.00;;;;;;5103232;28;20115;-68
2021/05/15 05:22:03;;;;;;;22.35;17.63;;;8.50;98.00;;;;;;5086930;28;20522;-69
2021/05/15 05:24:32;;;;;;;26.77;19.65;;;8.40;98.00;;;;;;5107497;28;20036;-69
2021/05/15 05:26:59;;;;;;;31.77;19.63;;;8.50;98.10;;;;;;5105632;28;20044;-68
2021/05/15 05:29:25;;;;;;;26.20;19.10;;;8.50;98.00;;;;;;5103776;28;20059;-68
2021/05/15 05:31:52;;;;;;;26.63;19.20;;;8.60;98.00;;;;;;5105787;28;20380;-68
2021/05/15 05:34:19;;;;;;;25.83;18.45;;;8.50;98.00;;;;;;5102768;28;20032;-69
2021/05/15 05:36:45;;;;;;;24.00;18.38;;;8.60;98.00;;;;;;5106515;28;20066;-69
2021/05/15 05:39:15;;;;;;;22.75;18.20;;;8.60;98.00;;;;;;5099763;28;20040;-69
2021/05/15 05:41:41;;;;;;;25.17;17.98;;;8.60;98.00;;;;;;5089117;28;20126;-68
2021/05/15 05:44:07;;;;;;;28.23;20.08;;;8.60;97.90;;;;;;5100859;28;20119;-69
2021/05/15 05:46:33;;;;;;;25.83;19.63;;;8.70;98.00;;;;;;5105613;28;20036;-69
2021/05/15 05:48:59;;;;;;;27.13;18.27;;;8.60;98.00;;;;;;5100282;28;20089;-69
2021/05/15 05:51:25;;;;;;;25.27;18.13;;;8.80;98.00;;;;;;5104060;28;20067;-68
2021/05/15 05:53:51;;;;;;;27.50;19.52;;;8.90;98.00;;;;;;5102952;28;20046;-68
2021/05/15 05:56:18;;;;;;;25.17;18.55;;;8.90;97.90;;;;;;5104903;28;20399;-68
2021/05/15 05:58:46;;;;;;;25.35;18.55;;;9.00;97.80;;;;;;5100016;28;20130;-68
2021/05/15 06:01:13;;;;;;;24.38;17.58;;;9.10;97.80;;;;;;5107606;28;20420;-68
2021/05/15 06:03:39;;;;;;;24.65;18.38;;;9.10;97.60;;;;;;5100469;28;20094;-69
2021/05/15 06:06:05;;;;;;;22.42;17.42;;;9.10;97.50;;;;;;5109143;28;20039;-69
2021/05/15 06:08:31;;;;;;;24.30;17.08;;;9.20;97.40;;;;;;5106901;28;20471;-69
2021/05/15 06:10:57;;;;;;;29.13;17.88;;;9.20;97.30;;;;;;5083569;28;20100;-68
2021/05/15 06:13:23;;;;;;;24.85;17.98;;;9.20;97.20;;;;;;5087840;28;20075;-68
2021/05/15 06:15:48;;;;;;;23.45;17.35;;;9.30;97.10;;;;;;5096574;28;20042;-68
2021/05/15 06:18:14;;;;;;;26.05;18.38;;;9.20;97.00;;;;;;5104589;28;20479;-68
2021/05/15 06:20:40;;;;;;;24.77;18.42;;;9.30;97.00;;;;;;5100121;28;20419;-69
2021/05/15 06:23:06;;;;;;;24.33;17.10;;;9.40;97.10;;;;;;5107223;28;20280;-69
2021/05/15 06:25:31;;;;;;;24.30;17.90;;;9.40;96.90;;;;;;5100149;28;20040;-69
2021/05/15 06:27:58;;;;;;;21.80;17.30;;;9.50;96.90;;;;;;5104111;28;20463;-69
2021/05/15 06:30:24;;;;;;;22.23;17.83;;;9.60;97.00;;;;;;5104226;28;20047;-68
2021/05/15 06:32:50;;;;;;;23.23;18.50;;;9.60;96.60;;;;;;5102576;28;20052;-68
2021/05/15 06:35:16;;;;;;;24.33;17.40;;;9.70;96.60;;;;;;5101951;28;20039;-68
2021/05/15 06:37:42;;;;;;;22.70;17.35;;;9.70;96.40;;;;;;5105238;28;20040;-68
2021/05/15 06:40:09;;;;;;;21.83;17.67;;;9.70;96.40;;;;;;5104062;28;20042;-69
2021/05/15 06:42:36;;;;;;;26.98;19.25;;;9.80;96.50;;;;;;5105994;28;20035;-69
2021/05/15 06:45:04;;;;;;;20.40;16.90;;;9.80;96.40;;;;;;5108394;28;20402;-69
2021/05/15 06:47:29;;;;;;;18.63;16.60;;;9.90;96.30;;;;;;5100612;28;20484;-69
2021/05/15 06:49:55;;;;;;;21.02;16.45;;;9.90;96.20;;;;;;5110274;28;20051;-69
2021/05/15 06:52:21;;;;;;;21.90;17.67;;;9.90;96.10;;;;;;5101713;28;20123;-69
2021/05/15 06:54:47;;;;;;;22.23;18.17;;;10.00;96.00;;;;;;5087578;28;20135;-69
2021/05/15 06:57:13;;;;;;;23.98;16.70;;;10.10;95.90;;;;;;5066408;28;20043;-69
2021/05/15 06:59:38;;;;;;;21.30;16.40;;;10.20;95.80;;;;;;5105729;28;20036;-69
2021/05/15 07:02:04;;;;;;;24.48;17.77;;;10.30;95.80;;;;;;5102727;28;20541;-69
2021/05/15 07:04:30;;;;;;;18.98;15.13;;;10.30;95.50;;;;;;5106108;28;20043;-68
2021/05/15 07:06:56;;;;;;;21.70;15.63;;;10.40;95.20;;;;;;5102193;28;20042;-68
2021/05/15 07:09:22;;;;;;;21.05;15.95;;;10.40;95.00;;;;;;5088440;28;20074;-69
2021/05/15 07:11:49;;;;;;;21.73;15.90;;;10.50;95.00;;;;;;5098865;28;20067;-68
2021/05/15 07:14:15;;;;;;;23.55;17.95;;;10.50;94.90;;;;;;5105399;28;20423;-68
2021/05/15 07:16:41;;;;;;;23.70;17.35;;;10.60;94.70;;;;;;5100311;28;20035;-68
2021/05/15 07:19:07;;;;;;;23.98;16.35;;;10.50;94.30;;;;;;5107218;28;20130;-68
2021/05/15 07:21:33;;;;;;;24.48;16.85;;;10.50;94.10;;;;;;5098314;28;20035;-68
2021/05/15 07:23:59;;;;;;;23.05;16.77;;;10.50;94.30;;;;;;5106229;28;20123;-68
2021/05/15 07:26:25;;;;;;;21.33;16.48;;;10.50;94.10;;;;;;5106341;28;20027;-68
2021/05/15 07:28:51;;;;;;;20.90;16.70;;;10.50;94.40;;;;;;5099132;28;20035;-69
2021/05/15 07:31:16;;;;;;;23.73;17.05;;;10.60;94.50;;;;;;5105012;28;20038;-68
2021/05/15 07:33:43;;;;;;;26.55;18.58;;;10.80;94.40;;;;;;5097926;28;20035;-68
2021/05/15 07:36:08;;;;;;;23.05;17.60;;;10.70;94.00;;;;;;5103301;28;20034;-68
2021/05/15 07:38:36;;;;;;;23.55;18.88;;;10.70;94.20;;;;;;5094553;28;20032;-68
2021/05/15 07:41:04;;;;;;;27.20;18.17;;;10.70;94.30;;;;;;5104820;28;20105;-68
2021/05/15 07:43:30;;;;;;;26.45;19.02;;;10.70;94.30;;;;;;5081623;28;20064;-69
2021/05/15 07:45:57;;;;;;;25.48;18.35;;;10.70;94.30;;;;;;5104180;28;20490;-69
2021/05/15 07:48:38;;;;;;;28.00;18.67;;;10.70;94.30;;;;;;5100071;28;20084;-68
2021/05/15 07:51:06;;;;;;;26.05;17.88;;;10.80;94.20;;;;;;5085411;28;20059;-68
2021/05/15 07:53:32;;;;;;;25.65;18.88;;;10.80;94.20;;;;;;5093328;27;20453;-68
2021/05/15 07:55:57;;;;;;;31.05;20.05;;;10.80;94.40;;;;;;5100826;28;20039;-68
2021/05/15 07:58:23;;;;;;;30.55;21.25;;;10.80;94.10;;;;;;5098922;28;20487;-69
2021/05/15 08:00:49;;;;;;;31.90;20.27;;;10.90;94.20;;;;;;5101296;28;20036;-69
2021/05/15 08:03:15;;;;;;;32.13;19.67;;;11.00;94.30;;;;;;5099795;28;20086;-69
2021/05/15 08:05:41;;;;;;;34.13;21.48;;;11.00;94.10;;;;;;5101799;28;20040;-68
2021/05/15 08:08:07;;;;;;;32.58;21.00;;;11.00;94.00;;;;;;5096745;28;20547;-68
2021/05/15 08:10:33;;;;;;;34.35;21.13;;;11.10;94.20;;;;;;5082408;28;20093;-68
2021/05/15 08:13:00;;;;;;;31.27;21.63;;;11.10;94.00;;;;;;5100444;28;20036;-68
2021/05/15 08:15:28;;;;;;;33.53;22.50;;;11.00;93.90;;;;;;5097304;28;20044;-68
2021/05/15 08:17:54;;;;;;;31.95;22.67;;;11.10;93.90;;;;;;5103486;28;20500;-68
2021/05/15 08:20:21;;;;;;;30.40;22.73;;;11.10;94.00;;;;;;5096503;28;20091;-68
2021/05/15 08:22:47;;;;;;;34.72;23.33;;;11.10;93.90;;;;;;5101230;28;20035;-68
2021/05/15 08:25:14;;;;;;;30.58;21.55;;;11.10;94.10;;;;;;5100404;28;20340;-68
2021/05/15 08:27:41;;;;;;;32.75;21.85;;;11.10;94.00;;;;;;5097795;28;20135;-68
2021/05/15 08:30:18;;;;;;;34.55;22.08;;;11.10;93.80;;;;;;5078085;28;20108;-68
2021/05/15 08:32:54;;;;;;;32.67;23.30;;;11.20;93.80;;;;;;5101541;28;20034;-69
2021/05/15 08:35:20;;;;;;;30.38;22.13;;;11.20;93.70;;;;;;5079670;28;20458;-69
2021/05/15 08:37:47;;;;;;;33.45;22.17;;;11.20;93.80;;;;;;5101168;28;20036;-68
2021/05/15 08:40:14;;;;;;;31.60;23.48;;;11.30;93.80;;;;;;5098998;28;20394;-68
2021/05/15 08:42:41;;;;;;;31.23;22.20;;;11.30;93.80;;;;;;5101103;28;20518;-68
2021/05/15 08:45:15;;;;;;;28.60;21.65;;;11.40;94.00;;;;;;5095393;28;20059;-69
2021/05/15 08:47:42;;;;;;;32.25;23.85;;;11.50;93.80;;;;;;5102779;28;20040;-69
2021/05/15 08:50:11;;;;;;;34.65;24.98;;;11.40;93.70;;;;;;5094549;28;20050;-69
2021/05/15 08:52:39;;;;;;;32.33;24.75;;;11.40;93.80;;;;;;5101349;28;20040;-69
2021/05/15 08:55:11;;;;;;;37.08;26.85;;;11.50;93.90;;;;;;5102947;28;20047;-69
2021/05/15 08:57:37;;;;;;;33.28;25.27;;;11.50;93.80;;;;;;5084947;28;20419;-69
2021/05/15 09:00:26;;;;;;;33.10;25.73;;;11.60;93.90;;;;;;5103059;28;20035;-69
2021/05/15 09:02:56;;;;;;;37.30;27.27;;;11.70;94.00;;;;;;5072268;28;20408;-69
2021/05/15 09:05:23;;;;;;;38.13;25.65;;;11.90;93.90;;;;;;5056810;28;20074;-69
2021/05/15 09:07:52;;;;;;;39.03;27.08;;;11.90;93.40;;;;;;5054761;28;20028;-69
2021/05/15 09:10:20;;;;;;;34.05;26.05;;;11.80;93.40;;;;;;5057217;28;20043;-69
2021/05/15 09:12:47;;;;;;;36.90;27.33;;;11.80;93.40;;;;;;5056168;28;20048;-70
2021/05/15 09:15:14;;;;;;;36.15;27.33;;;11.70;93.30;;;;;;5061975;28;20098;-69
2021/05/15 09:17:50;;;;;;;34.75;25.98;;;11.70;93.60;;;;;;5054094;28;20098;-69
2021/05/15 09:20:28;;;;;;;35.72;27.42;;;11.70;93.80;;;;;;5060937;28;20044;-69
2021/05/15 09:22:54;;;;;;;36.63;27.33;;;11.80;93.60;;;;;;5056760;28;20040;-70
2021/05/15 09:25:21;;;;;;;38.65;29.02;;;11.80;93.40;;;;;;5064131;28;20780;-70
2021/05/15 09:27:47;;;;;;;38.40;27.70;;;11.70;93.40;;;;;;5055677;28;20183;-68
2021/05/15 09:30:14;;;;;;;38.35;28.75;;;11.70;93.70;;;;;;5060321;28;20113;-68
2021/05/15 09:32:40;;;;;;;39.13;30.20;;;11.70;93.80;;;;;;5058924;28;20048;-68
2021/05/15 09:35:07;;;;;;;39.55;29.92;;;11.80;94.00;;;;;;5060446;28;20041;-68
2021/05/15 09:37:39;;;;;;;38.85;30.17;;;11.80;93.90;;;;;;5057710;28;20037;-68
2021/05/15 09:40:18;;;;;;;34.47;28.55;;;11.90;93.80;;;;;;5063028;28;20454;-68
2021/05/15 09:42:55;;;;;;;41.00;30.88;;;12.00;93.60;;;;;;5052322;28;20163;-69
2021/05/15 09:45:32;;;;;;;41.60;30.50;;;12.00;93.70;;;;;;5059870;28;20036;-69
2021/05/15 09:47:59;;;;;;;42.78;30.58;;;12.10;93.60;;;;;;5048032;28;20127;-69
2021/05/15 09:50:29;;;;;;;39.83;31.17;;;12.10;93.60;;;;;;5059749;28;20166;-69
2021/05/15 09:53:15;;;;;;;41.40;31.02;;;12.20;93.70;;;;;;5056730;28;20044;-69
2021/05/15 09:55:43;;;;;;;38.45;31.13;;;12.20;93.60;;;;;;5057617;28;20492;-69
2021/05/15 09:58:10;;;;;;;41.30;31.77;;;12.20;93.60;;;;;;5057321;28;20051;-69
2021/05/15 10:00:44;;;;;;;39.30;31.17;;;12.30;93.70;;;;;;5062676;28;20086;-70
2021/05/15 10:03:27;;;;;;;41.20;31.42;;;12.40;93.70;;;;;;5080184;28;20124;-70
2021/05/15 10:06:13;;;;;;;40.90;31.40;;;12.50;93.50;;;;;;5103730;28;20050;-70
2021/05/15 10:08:40;;;;;;;38.53;31.48;;;12.50;93.40;;;;;;5099964;28;20126;-69
2021/05/15 10:11:06;;;;;;;39.58;31.77;;;12.60;93.50;;;;;;5104220;28;20521;-69
2021/05/15 10:13:37;;;;;;;38.28;31.85;;;12.70;93.50;;;;;;5100066;28;20058;-69
2021/05/15 10:16:04;;;;;;;37.25;31.73;;;12.90;93.30;;;;;;5108237;28;20108;-69
2021/05/15 10:18:31;;;;;;;39.30;31.77;;;13.00;92.90;;;;;;5098578;28;20031;-69
2021/05/15 10:20:58;;;;;;;39.10;32.70;;;13.10;92.80;;;;;;5106119;28;20043;-69
2021/05/15 10:23:39;;;;;;;37.38;31.50;;;13.10;92.80;;;;;;5105393;28;20044;-69
2021/05/15 10:26:16;;;;;;;37.60;30.95;;;13.10;92.50;;;;;;5103805;28;20042;-69
2021/05/15 10:28:44;;;;;;;41.60;32.38;;;13.20;92.70;;;;;;5104201;28;20047;-69
2021/05/15 10:31:14;;;;;;;38.25;31.38;;;13.20;92.50;;;;;;5101744;28;20039;-69
2021/05/15 10:33:48;;;;;;;40.80;32.97;;;13.10;92.40;;;;;;5105881;28;20063;-69
2021/05/15 10:36:24;;;;;;;42.25;32.60;;;13.10;92.40;;;;;;5098738;28;20032;-69
2021/05/15 10:38:53;;;;;;;38.80;31.23;;;13.10;92.50;;;;;;5108373;28;20038;-69
2021/05/15 10:41:28;;;;;;;41.05;32.58;;;13.20;92.70;;;;;;5101803;28;20466;-70
2021/05/15 10:43:56;;;;;;;36.70;32.17;;;13.30;92.50;;;;;;5103860;28;20115;-69
2021/05/15 10:46:26;;;;;;;35.65;31.80;;;13.30;92.40;;;;;;5098460;28;20032;-69
2021/05/15 10:48:56;;;;;;;39.28;31.95;;;13.30;92.00;;;;;;5103021;28;20044;-70
2021/05/15 10:51:39;;;;;;;38.40;31.70;;;13.30;92.00;;;;;;5097968;28;20480;-69
2021/05/15 10:54:06;;;;;;;36.50;32.15;;;13.30;91.80;;;;;;5106535;28;20089;-69
2021/05/15 10:56:32;;;;;;;41.45;33.53;;;13.30;92.10;;;;;;5095759;28;20032;-69
2021/05/15 10:59:06;;;;;;;40.85;32.00;;;13.30;92.10;;;;;;5102661;28;20032;-69
2021/05/15 11:01:53;;;;;;;39.00;33.78;;;13.40;92.20;;;;;;5098367;28;20128;-69
2021/05/15 11:04:31;;;;;;;38.13;30.17;;;13.60;92.40;;;;;;5091096;28;20064;-69
2021/05/15 11:07:02;;;;;;;36.47;30.75;;;13.80;92.20;;;;;;5100515;28;20032;-70
2021/05/15 11:09:29;;;;;;;33.90;30.20;;;13.90;91.90;;;;;;5086737;28;20044;-69
2021/05/15 11:12:14;;;;;;;32.80;28.95;;;13.90;91.60;;;;;;5099205;28;20047;-69
2021/05/15 11:14:42;;;;;;;33.45;27.98;;;14.10;91.00;;;;;;5104654;28;20047;-70
2021/05/15 11:17:19;;;;;;;27.80;24.90;;;14.30;91.10;;;;;;5095789;28;20052;-69
2021/05/15 11:20:02;;;;;;;29.50;26.30;;;14.60;90.20;;;;;;5102068;28;20036;-69
2021/05/15 11:22:37;;;;;;;32.25;27.33;;;15.20;90.20;;;;;;5101787;27;20033;-70
2021/05/15 11:25:16;;;;;;;;;;;16.20;89.90;;;;;;5110799;28;20036;-70
2021/05/15 11:28:07;;;;;;;28.65;25.63;;;17.00;85.00;;;;;;5097245;28;19916;-70
2021/05/15 11:30:42;;;;;;;29.20;25.63;;;17.40;74.90;;;;;;5105406;28;20380;-70
2021/05/15 11:33:13;;;;;;;28.77;25.90;;;17.40;76.50;;;;;;5103443;28;20395;-70
2021/05/15 11:35:45;;;;;;;25.63;23.10;;;17.10;78.80;;;;;;5084826;28;20471;-69
2021/05/15 11:38:17;;;;;;;28.30;25.35;;;16.90;78.50;;;;;;5085972;28;20431;-69
2021/05/15 11:40:46;;;;;;;28.30;25.42;;;16.80;77.90;;;;;;5104677;28;20036;-69
2021/05/15 11:43:29;;;;;;;27.10;24.27;;;16.60;75.80;;;;;;5098058;28;20067;-69
2021/05/15 11:45:56;;;;;;;26.20;23.42;;;16.40;74.80;;;;;;5087076;28;20520;-69
2021/05/15 11:48:24;;;;;;;26.80;23.90;;;16.60;79.50;;;;;;5097985;28;20162;-70
2021/05/15 11:51:09;;;;;;;27.55;24.58;;;16.90;76.30;;;;;;5104560;28;20059;-70
2021/05/15 11:53:37;;;;;;;25.65;23.15;;;17.00;75.80;;;;;;5096095;28;20040;-70
2021/05/15 11:56:14;;;;;;;25.25;22.73;;;17.40;75.30;;;;;;5082535;28;20375;-70
2021/05/15 11:58:57;;;;;;;24.52;21.95;;;18.20;71.50;;;;;;5102189;28;20036;-70
2021/05/15 12:01:24;;;;;;;25.50;22.80;;;18.50;70.60;;;;;;5099819;28;20040;-70
2021/05/15 12:03:50;;;;;;;24.58;22.00;;;18.50;70.30;;;;;;5082429;28;20090;-70
2021/05/15 12:06:17;;;;;;;24.23;21.73;;;18.40;68.30;;;;;;5102213;28;20092;-70
2021/05/15 12:08:45;;;;;;;23.65;21.35;;;18.10;67.70;;;;;;5099695;28;20111;-70
2021/05/15 12:11:12;;;;;;;24.15;21.65;;;17.90;68.20;;;;;;5103482;28;20039;-70
2021/05/15 12:13:54;;;;;;;25.20;22.50;;;17.60;68.70;;;;;;5093707;28;20032;-69
2021/05/15 12:16:20;;;;;;;22.60;20.25;;;17.40;68.80;;;;;;5100296;28;20066;-69
2021/05/15 12:18:46;;;;;;;21.17;19.02;;;17.10;69.80;;;;;;5097500;28;20104;-70
2021/05/15 12:21:12;;;;;;;20.05;18.05;;;17.30;69.50;;;;;;5101570;28;20107;-70
2021/05/15 12:23:38;;;;;;;20.85;18.80;;;17.40;68.80;;;;;;5095363;28;20123;-70
2021/05/15 12:26:09;;;;;;;20.63;18.17;;;17.40;68.20;;;;;;5100545;28;20085;-69
2021/05/15 12:28:43;;;;;;;18.75;16.85;;;17.80;69.10;;;;;;5093918;28;20044;-69
2021/05/15 12:31:32;;;;;;;19.67;17.67;;;18.30;63.30;;;;;;5107616;28;20040;-69
2021/05/15 12:33:59;;;;;;;19.73;17.75;;;18.10;62.80;;;;;;5094898;28;20035;-69
2021/05/15 12:36:31;;;;;;;19.58;17.67;;;17.70;66.10;;;;;;5102063;28;20024;-69
2021/05/15 12:38:58;;;;;;;17.88;16.13;;;17.50;67.50;;;;;;5096626;28;20032;-69